createdAt,value
2023-05-27T00:00:48.861Z,4.68
2023-05-27T00:01:50.422Z,5.68
2023-05-27T00:02:52.172Z,4.20
2023-05-27T00:03:53.950Z,5.18
2023-05-27T00:04:55.739Z,4.15
2023-05-27T00:05:57.259Z,3.83
2023-05-27T00:06:58.930Z,4.35
2023-05-27T00:08:00.528Z,5.47
2023-05-27T00:09:02.114Z,5.10
2023-05-27T00:10:03.891Z,5.30
2023-05-27T00:11:05.880Z,5.43
2023-05-27T00:13:08.731Z,4.53
2023-05-27T00:14:10.362Z,5.38
2023-05-27T00:15:11.833Z,4.95
2023-05-27T00:16:13.964Z,4.35
2023-05-27T00:17:15.485Z,5.07
2023-05-27T00:18:17.034Z,4.43
2023-05-27T00:19:19.080Z,5.15
2023-05-27T00:21:22.336Z,4.32
2023-05-27T00:22:24.040Z,4.00
2023-05-27T00:23:25.616Z,4.20
2023-05-27T00:24:27.440Z,4.35
2023-05-27T00:25:28.919Z,4.40
2023-05-27T00:26:30.392Z,4.35
2023-05-27T00:27:31.916Z,4.93
2023-05-27T00:28:33.436Z,4.95
2023-05-27T00:29:35.756Z,5.10
2023-05-27T00:30:37.596Z,4.18
2023-05-27T00:31:39.200Z,5.28
2023-05-27T00:32:40.759Z,4.50
2023-05-27T00:33:42.215Z,4.85
2023-05-27T00:34:43.682Z,5.85
2023-05-27T00:35:45.284Z,5.32
2023-05-27T00:36:46.749Z,4.22
2023-05-27T00:37:48.203Z,4.80
2023-05-27T00:38:49.836Z,5.68
2023-05-27T00:39:51.318Z,5.80
2023-05-27T00:40:54.382Z,4.60
2023-05-27T00:41:55.990Z,4.13
2023-05-27T00:42:57.777Z,5.18
2023-05-27T00:43:59.324Z,5.63
2023-05-27T00:45:00.789Z,5.32
2023-05-27T00:46:02.436Z,4.72
2023-05-27T00:47:04.057Z,4.60
2023-05-27T00:48:05.890Z,5.25
2023-05-27T00:49:07.542Z,4.72
2023-05-27T00:50:09.493Z,4.78
2023-05-27T00:51:11.038Z,4.60
2023-05-27T00:52:14.230Z,5.20
2023-05-27T00:53:17.901Z,5.53
2023-05-27T00:54:19.910Z,4.00
2023-05-27T00:55:21.379Z,5.03
2023-05-27T00:56:22.822Z,5.82
2023-05-27T00:57:24.477Z,5.68
2023-05-27T00:58:26.197Z,5.38
2023-05-27T00:59:27.950Z,5.60
2023-05-27T01:00:30.077Z,5.90
2023-05-27T01:01:31.714Z,4.35
2023-05-27T01:02:33.437Z,5.97
2023-05-27T01:03:35.670Z,5.30
2023-05-27T01:04:37.434Z,5.82
2023-05-27T01:05:39.276Z,4.30
2023-05-27T01:07:03.987Z,6.22
2023-05-27T01:08:12.977Z,6.07
2023-05-27T01:09:28.062Z,5.00
2023-05-27T01:10:53.041Z,5.70
2023-05-27T01:12:19.473Z,5.55
2023-05-27T01:13:27.168Z,5.38
2023-05-27T01:14:31.225Z,4.80
2023-05-27T01:15:34.349Z,6.00
2023-05-27T01:16:40.465Z,4.90
2023-05-27T01:17:45.798Z,5.22
2023-05-27T01:18:50.330Z,5.57
2023-05-27T01:19:53.141Z,4.80
2023-05-27T01:21:00.739Z,4.70
2023-05-27T01:22:03.229Z,6.13
2023-05-27T01:23:05.161Z,5.00
2023-05-27T01:24:07.093Z,6.05
2023-05-27T01:25:09.576Z,5.10
2023-05-27T01:26:11.282Z,4.90
2023-05-27T01:27:13.611Z,5.50
2023-05-27T01:28:15.112Z,6.63
2023-05-27T01:29:16.932Z,6.03
2023-05-27T01:30:18.467Z,5.50
2023-05-27T01:31:32.570Z,4.82
2023-05-27T01:34:01.707Z,4.63
2023-05-27T01:35:18.775Z,4.95
2023-05-27T01:36:23.527Z,4.55
2023-05-27T01:37:26.774Z,5.85
2023-05-27T01:38:29.860Z,5.50
2023-05-27T01:39:32.578Z,4.90
2023-05-27T01:40:35.725Z,4.78
2023-05-27T01:41:37.605Z,4.63
2023-05-27T01:42:42.367Z,5.47
2023-05-27T01:43:44.475Z,5.05
2023-05-27T01:44:46.120Z,5.55
2023-05-27T01:45:47.685Z,5.82
2023-05-27T01:46:49.162Z,5.05
2023-05-27T01:47:51.750Z,6.07
2023-05-27T01:48:53.369Z,5.60
2023-05-27T01:49:54.843Z,5.82
2023-05-27T01:50:56.350Z,5.68
2023-05-27T01:51:57.902Z,5.60
2023-05-27T01:52:59.573Z,5.80
2023-05-27T01:54:01.050Z,5.05
2023-05-27T01:55:03.891Z,4.90
2023-05-27T01:56:05.923Z,6.35
2023-05-27T01:58:08.946Z,4.97
2023-05-27T01:59:10.544Z,5.47
2023-05-27T02:00:12.945Z,5.63
2023-05-27T02:01:14.515Z,6.30
2023-05-27T02:02:16.148Z,6.28
2023-05-27T02:03:17.859Z,6.75
2023-05-27T02:04:19.486Z,5.57
2023-05-27T02:05:20.935Z,6.05
2023-05-27T02:06:22.945Z,6.25
2023-05-27T02:08:26.097Z,4.80
2023-05-27T02:09:27.666Z,5.63
2023-05-27T02:10:29.575Z,6.13
2023-05-27T02:11:31.309Z,6.00
2023-05-27T02:12:32.804Z,6.28
2023-05-27T02:13:34.320Z,6.32
2023-05-27T02:14:39.533Z,5.80
2023-05-27T02:15:41.642Z,6.22
2023-05-27T02:17:47.545Z,6.07
2023-05-27T02:18:49.978Z,5.80
2023-05-27T02:19:52.230Z,5.82
2023-05-27T02:20:53.705Z,5.65
2023-05-27T02:21:55.481Z,6.13
2023-05-27T02:22:57.021Z,5.40
2023-05-27T02:23:59.093Z,5.82
2023-05-27T02:26:02.069Z,5.85
2023-05-27T02:27:03.734Z,6.72
2023-05-27T02:28:05.270Z,6.43
2023-05-27T02:29:06.782Z,6.57
2023-05-27T02:30:08.867Z,6.47
2023-05-27T02:31:10.627Z,5.30
2023-05-27T02:32:12.229Z,6.05
2023-05-27T02:33:13.801Z,6.15
2023-05-27T02:34:15.825Z,6.10
2023-05-27T02:35:17.367Z,5.95
2023-05-27T02:36:19.275Z,5.20
2023-05-27T02:37:20.831Z,6.55
2023-05-27T02:38:22.307Z,5.40
2023-05-27T02:39:23.968Z,6.13
2023-05-27T02:40:29.733Z,5.68
2023-05-27T02:41:31.173Z,6.75
2023-05-27T02:42:32.627Z,6.05
2023-05-27T02:43:34.090Z,6.35
2023-05-27T02:44:35.548Z,6.40
2023-05-27T02:45:37.544Z,6.68
2023-05-27T02:47:40.528Z,5.32
2023-05-27T02:48:41.965Z,7.07
2023-05-27T02:49:43.449Z,6.07
2023-05-27T02:50:44.902Z,6.43
2023-05-27T02:51:46.346Z,6.13
2023-05-27T02:52:47.935Z,7.53
2023-05-27T02:53:51.139Z,5.55
2023-05-27T02:54:52.597Z,6.55
2023-05-27T02:55:54.281Z,6.00
2023-05-27T02:56:56.092Z,6.43
2023-05-27T02:57:57.630Z,6.25
2023-05-27T02:58:59.125Z,5.43
2023-05-27T03:00:00.590Z,7.03
2023-05-27T03:01:02.091Z,6.25
2023-05-27T03:02:03.680Z,5.68
2023-05-27T03:03:07.864Z,6.22
2023-05-27T03:04:09.459Z,6.40
2023-05-27T03:05:11.005Z,7.20
2023-05-27T03:06:12.498Z,6.45
2023-05-27T03:07:14.067Z,7.05
2023-05-27T03:08:16.196Z,6.50
2023-05-27T03:10:19.059Z,6.72
2023-05-27T03:11:20.585Z,7.03
2023-05-27T03:12:22.175Z,6.40
2023-05-27T03:13:23.642Z,6.47
2023-05-27T03:14:25.139Z,5.43
2023-05-27T03:15:26.654Z,6.30
2023-05-27T03:16:28.151Z,7.78
2023-05-27T03:17:29.714Z,7.03
2023-05-27T03:18:31.189Z,6.50
2023-05-27T03:19:32.636Z,6.90
2023-05-27T03:20:34.148Z,6.43
2023-05-27T03:21:36.905Z,6.20
2023-05-27T03:22:38.366Z,5.82
2023-05-27T03:23:39.867Z,5.75
2023-05-27T03:24:41.535Z,7.20
2023-05-27T03:25:43.094Z,6.55
2023-05-27T03:26:44.733Z,5.72
2023-05-27T03:27:46.220Z,6.60
2023-05-27T03:28:47.699Z,7.30
2023-05-27T03:29:49.159Z,6.85
2023-05-27T03:30:50.755Z,6.30
2023-05-27T03:31:52.355Z,6.25
2023-05-27T03:32:54.023Z,7.00
2023-05-27T03:33:55.626Z,6.10
2023-05-27T03:34:57.321Z,6.70
2023-05-27T03:35:58.795Z,6.13
2023-05-27T03:37:00.258Z,6.35
2023-05-27T03:38:01.998Z,7.20
2023-05-27T03:39:05.270Z,7.70
2023-05-27T03:40:07.420Z,6.53
2023-05-27T03:41:09.406Z,6.88
2023-05-27T03:43:12.408Z,7.40
2023-05-27T03:44:13.880Z,7.78
2023-05-27T03:45:15.677Z,7.32
2023-05-27T03:46:17.186Z,6.28
2023-05-27T03:47:21.549Z,7.38
2023-05-27T03:48:23.122Z,6.32
2023-05-27T03:49:24.646Z,7.40
2023-05-27T03:50:26.159Z,6.43
2023-05-27T03:51:28.080Z,7.63
2023-05-27T03:52:29.591Z,5.80
2023-05-27T03:53:31.070Z,7.03
2023-05-27T03:54:32.522Z,6.10
2023-05-27T03:55:34.032Z,6.40
2023-05-27T03:56:35.562Z,6.13
2023-05-27T03:57:37.344Z,5.85
2023-05-27T03:58:38.829Z,6.93
2023-05-27T03:59:40.366Z,7.28
2023-05-27T04:00:42.751Z,6.88
2023-05-27T04:01:48.123Z,6.85
2023-05-27T04:02:50.480Z,5.50
2023-05-27T04:03:52.265Z,6.88
2023-05-27T04:04:54.041Z,6.88
2023-05-27T04:05:57.714Z,7.65
2023-05-27T04:06:59.452Z,7.05
2023-05-27T04:08:01.870Z,7.68
2023-05-27T04:09:04.220Z,6.22
2023-05-27T04:10:06.661Z,6.40
2023-05-27T04:11:12.074Z,5.38
2023-05-27T04:12:13.547Z,7.07
2023-05-27T04:13:15.037Z,7.53
2023-05-27T04:14:16.511Z,6.32
2023-05-27T04:15:18.077Z,6.38
2023-05-27T04:16:19.910Z,6.63
2023-05-27T04:17:21.575Z,6.90
2023-05-27T04:18:23.390Z,6.80
2023-05-27T04:19:24.979Z,6.90
2023-05-27T04:20:26.700Z,7.28
2023-05-27T04:21:28.603Z,6.78
2023-05-27T04:22:30.064Z,6.47
2023-05-27T04:23:31.535Z,5.30
2023-05-27T04:24:32.980Z,5.30
2023-05-27T04:25:35.960Z,6.75
2023-05-27T04:26:37.432Z,5.20
2023-05-27T04:27:38.986Z,5.25
2023-05-27T04:28:40.555Z,6.03
2023-05-27T04:29:44.080Z,4.68
2023-05-27T04:30:49.347Z,5.00
2023-05-27T04:31:51.735Z,6.60
2023-05-27T04:32:53.682Z,4.75
2023-05-27T04:33:56.337Z,6.50
2023-05-27T04:34:58.208Z,4.50
2023-05-27T04:35:59.686Z,4.95
2023-05-27T04:37:02.165Z,5.65
2023-05-27T04:38:03.681Z,6.30
2023-05-27T04:39:05.560Z,5.07
2023-05-27T04:41:10.670Z,4.22
2023-05-27T04:42:13.434Z,6.03
2023-05-27T04:43:15.139Z,5.30
2023-05-27T04:44:18.182Z,5.28
2023-05-27T04:45:19.750Z,5.80
2023-05-27T04:46:22.001Z,5.25
2023-05-27T04:47:23.582Z,5.03
2023-05-27T04:48:25.203Z,5.68
2023-05-27T04:49:26.742Z,5.85
2023-05-27T04:50:28.264Z,6.22
2023-05-27T04:51:29.751Z,5.47
2023-05-27T04:52:37.943Z,6.65
2023-05-27T04:53:39.454Z,6.90
2023-05-27T04:54:40.986Z,6.22
2023-05-27T04:55:42.761Z,5.45
2023-05-27T04:56:44.589Z,6.68
2023-05-27T04:57:46.526Z,5.97
2023-05-27T04:58:49.698Z,5.65
2023-05-27T05:00:19.931Z,6.72
2023-05-27T05:01:23.427Z,5.93
2023-05-27T05:02:28.275Z,5.40
2023-05-27T05:03:40.515Z,5.35
2023-05-27T05:04:42.269Z,6.63
2023-05-27T05:05:43.744Z,6.10
2023-05-27T05:06:45.249Z,6.47
2023-05-27T05:07:46.823Z,6.22
2023-05-27T05:08:48.516Z,6.30
2023-05-27T05:09:49.941Z,6.53
2023-05-27T05:10:52.211Z,5.40
2023-05-27T05:11:53.817Z,5.70
2023-05-27T05:12:55.410Z,5.85
2023-05-27T05:13:56.870Z,5.53
2023-05-27T05:14:58.928Z,6.43
2023-05-27T05:16:00.647Z,5.30
2023-05-27T05:17:02.296Z,6.20
2023-05-27T05:18:04.019Z,6.20
2023-05-27T05:19:05.789Z,5.22
2023-05-27T05:20:09.777Z,6.30
2023-05-27T05:21:11.269Z,5.45
2023-05-27T05:22:15.371Z,4.97
2023-05-27T05:23:17.550Z,5.78
2023-05-27T05:24:19.031Z,5.05
2023-05-27T05:25:20.518Z,5.78
2023-05-27T05:26:22.025Z,4.82
2023-05-27T05:27:24.459Z,6.43
2023-05-27T05:28:26.129Z,4.80
2023-05-27T05:29:27.637Z,6.13
2023-05-27T05:30:29.111Z,5.50
2023-05-27T05:31:30.764Z,5.78
2023-05-27T05:32:32.242Z,4.53
2023-05-27T05:33:34.079Z,4.68
2023-05-27T05:34:35.634Z,5.47
2023-05-27T05:35:37.299Z,4.88
2023-05-27T05:36:38.793Z,6.10
2023-05-27T05:37:40.465Z,6.43
2023-05-27T05:38:41.999Z,5.57
2023-05-27T05:39:44.042Z,4.25
2023-05-27T05:40:49.979Z,6.10
2023-05-27T05:41:52.073Z,5.30
2023-05-27T05:42:53.621Z,5.13
2023-05-27T05:43:55.217Z,4.78
2023-05-27T05:44:56.663Z,5.30
2023-05-27T05:45:58.262Z,5.15
2023-05-27T05:46:59.749Z,5.82
2023-05-27T05:48:01.319Z,5.45
2023-05-27T05:49:02.772Z,4.60
2023-05-27T05:50:04.520Z,5.40
2023-05-27T05:51:06.047Z,4.43
2023-05-27T05:53:11.060Z,3.50
2023-05-27T05:54:12.942Z,4.57
2023-05-27T05:55:14.404Z,5.40
2023-05-27T05:56:15.999Z,4.90
2023-05-27T05:57:17.510Z,4.50
2023-05-27T05:58:19.141Z,5.63
2023-05-27T05:59:21.176Z,3.95
2023-05-27T06:00:23.562Z,4.00
2023-05-27T06:01:25.112Z,3.88
2023-05-27T06:02:26.617Z,3.85
2023-05-27T06:03:28.347Z,3.83
2023-05-27T06:04:30.014Z,3.80
2023-05-27T06:05:31.541Z,4.35
2023-05-27T06:06:33.069Z,4.47
2023-05-27T06:07:34.516Z,4.43
2023-05-27T06:08:35.988Z,5.18
2023-05-27T06:09:37.501Z,5.03
2023-05-27T06:10:38.942Z,4.20
2023-05-27T06:11:40.516Z,4.47
2023-05-27T06:12:41.967Z,3.70
2023-05-27T06:13:43.449Z,4.95
2023-05-27T06:14:44.984Z,3.60
2023-05-27T06:15:46.591Z,3.70
2023-05-27T06:16:48.122Z,4.28
2023-05-27T06:17:49.687Z,4.10
2023-05-27T06:18:51.165Z,3.30
2023-05-27T06:19:52.654Z,4.72
2023-05-27T06:20:54.404Z,3.35
2023-05-27T06:22:57.436Z,4.10
2023-05-27T06:23:59.979Z,3.30
2023-05-27T06:25:01.447Z,3.42
2023-05-27T06:26:03.660Z,3.13
2023-05-27T06:27:05.353Z,3.35
2023-05-27T06:28:07.038Z,3.03
2023-05-27T06:29:08.478Z,3.30
2023-05-27T06:30:10.666Z,3.53
2023-05-27T06:31:12.740Z,3.80
2023-05-27T06:32:14.377Z,2.72
2023-05-27T06:33:15.828Z,3.22
2023-05-27T06:34:17.700Z,2.90
2023-05-27T06:35:19.730Z,3.05
2023-05-27T06:36:21.177Z,3.63
2023-05-27T06:37:22.803Z,3.75
2023-05-27T06:38:24.366Z,2.72
2023-05-27T06:39:25.899Z,3.05
2023-05-27T06:40:27.461Z,3.60
2023-05-27T06:41:28.951Z,2.88
2023-05-27T06:42:30.535Z,2.53
2023-05-27T06:43:31.969Z,3.00
2023-05-27T06:44:33.469Z,2.53
2023-05-27T06:45:35.065Z,2.05
2023-05-27T06:46:36.674Z,3.33
2023-05-27T06:47:39.431Z,2.63
2023-05-27T06:48:41.250Z,2.10
2023-05-27T06:49:42.737Z,2.30
2023-05-27T06:50:44.209Z,2.58
2023-05-27T06:51:45.959Z,2.53
2023-05-27T06:52:47.448Z,2.70
2023-05-27T06:53:48.880Z,2.20
2023-05-27T06:54:50.388Z,2.13
2023-05-27T06:55:51.918Z,3.08
2023-05-27T06:56:53.373Z,2.40
2023-05-27T06:57:54.850Z,1.92
2023-05-27T06:58:56.294Z,2.58
2023-05-27T06:59:57.770Z,2.22
2023-05-27T07:00:59.270Z,2.20
2023-05-27T07:02:00.865Z,2.92
2023-05-27T07:03:02.494Z,2.75
2023-05-27T07:04:04.618Z,2.35
2023-05-27T07:05:06.678Z,2.85
2023-05-27T07:06:08.184Z,1.90
2023-05-27T07:07:09.721Z,2.40
2023-05-27T07:08:11.199Z,2.35
2023-05-27T07:09:13.260Z,2.45
2023-05-27T07:10:14.817Z,2.75
2023-05-27T07:11:17.282Z,2.20
2023-05-27T07:12:19.199Z,2.40
2023-05-27T07:14:22.102Z,2.33
2023-05-27T07:15:23.586Z,2.22
2023-05-27T07:16:25.167Z,2.53
2023-05-27T07:17:26.771Z,2.25
2023-05-27T07:18:28.235Z,1.80
2023-05-27T07:19:29.752Z,2.10
2023-05-27T07:20:32.791Z,1.50
2023-05-27T07:21:35.708Z,2.45
2023-05-27T07:22:37.150Z,2.28
2023-05-27T07:23:38.601Z,2.05
2023-05-27T07:24:40.036Z,2.13
2023-05-27T07:25:41.492Z,2.00
2023-05-27T07:26:42.993Z,1.98
2023-05-27T07:27:44.729Z,2.22
2023-05-27T07:28:46.906Z,2.30
2023-05-27T07:29:48.396Z,1.65
2023-05-27T07:30:50.055Z,2.30
2023-05-27T07:31:51.819Z,2.03
2023-05-27T07:32:54.695Z,2.10
2023-05-27T07:33:56.614Z,2.50
2023-05-27T07:34:58.227Z,2.60
2023-05-27T07:35:59.692Z,1.90
2023-05-27T07:37:01.190Z,2.40
2023-05-27T07:38:03.930Z,1.95
2023-05-27T07:39:05.444Z,2.10
2023-05-27T07:40:07.249Z,2.38
2023-05-27T07:41:08.706Z,3.20
2023-05-27T07:42:10.287Z,2.70
2023-05-27T07:43:12.035Z,4.05
2023-05-27T07:44:13.486Z,5.80
2023-05-27T07:45:15.065Z,3.90
2023-05-27T07:46:16.575Z,2.88
2023-05-27T07:47:18.221Z,3.05
2023-05-27T07:48:19.656Z,1.70
2023-05-27T07:49:21.796Z,1.73
2023-05-27T07:50:23.370Z,3.35
2023-05-27T07:51:24.946Z,2.30
2023-05-27T07:52:26.427Z,1.88
2023-05-27T07:53:27.966Z,2.65
2023-05-27T07:54:29.586Z,1.45
2023-05-27T07:55:31.922Z,2.30
2023-05-27T07:56:35.206Z,1.55
2023-05-27T07:57:36.870Z,1.90
2023-05-27T07:58:38.340Z,1.42
2023-05-27T07:59:39.799Z,1.08
2023-05-27T08:00:41.427Z,1.65
2023-05-27T08:01:43.043Z,1.27
2023-05-27T08:02:45.039Z,1.98
2023-05-27T08:03:46.773Z,3.00
2023-05-27T08:04:48.576Z,1.60
2023-05-27T08:06:51.586Z,1.33
2023-05-27T08:07:53.066Z,1.77
2023-05-27T08:08:54.506Z,1.23
2023-05-27T08:09:56.111Z,1.17
2023-05-27T08:10:58.147Z,1.48
2023-05-27T08:11:59.970Z,2.15
2023-05-27T08:13:01.508Z,2.28
2023-05-27T08:14:03.042Z,1.50
2023-05-27T08:15:04.975Z,1.52
2023-05-27T08:16:06.523Z,2.10
2023-05-27T08:17:08.212Z,1.73
2023-05-27T08:18:09.834Z,1.50
2023-05-27T08:19:11.398Z,1.52
2023-05-27T08:20:13.227Z,1.60
2023-05-27T08:22:16.317Z,1.27
2023-05-27T08:23:18.871Z,1.40
2023-05-27T08:24:22.776Z,1.33
2023-05-27T08:25:24.322Z,1.67
2023-05-27T08:26:27.184Z,1.30
2023-05-27T08:27:50.602Z,1.60
2023-05-27T08:28:52.060Z,1.85
2023-05-27T08:29:53.570Z,1.70
2023-05-27T08:30:55.246Z,1.67
2023-05-27T08:32:59.254Z,1.88
2023-05-27T08:34:00.925Z,1.35
2023-05-27T08:35:02.414Z,1.48
2023-05-27T08:36:04.013Z,1.58
2023-05-27T08:37:06.669Z,1.63
2023-05-27T08:38:08.139Z,1.58
2023-05-27T08:39:10.134Z,2.08
2023-05-27T08:40:15.729Z,1.60
2023-05-27T08:41:17.572Z,1.13
2023-05-27T08:42:19.057Z,1.90
2023-05-27T08:43:22.818Z,1.65
2023-05-27T08:44:24.586Z,1.75
2023-05-27T08:45:26.411Z,2.13
2023-05-27T08:46:28.246Z,1.40
2023-05-27T08:48:32.341Z,1.73
2023-05-27T08:49:33.897Z,1.60
2023-05-27T08:50:35.608Z,1.08
2023-05-27T08:51:40.919Z,1.50
2023-05-27T08:52:48.300Z,1.30
2023-05-27T08:53:49.844Z,1.30
2023-05-27T08:54:51.704Z,1.48
2023-05-27T08:57:00.398Z,1.60
2023-05-27T08:58:02.976Z,1.20
2023-05-27T08:59:04.530Z,1.15
2023-05-27T09:00:12.475Z,1.10
2023-05-27T09:01:17.630Z,1.40
2023-05-27T09:02:22.414Z,1.20
2023-05-27T09:03:24.363Z,1.33
2023-05-27T09:04:26.545Z,1.92
2023-05-27T09:05:29.818Z,1.20
2023-05-27T09:06:31.814Z,1.20
2023-05-27T09:07:33.279Z,1.73
2023-05-27T09:08:49.757Z,1.42
2023-05-27T09:09:59.471Z,1.13
2023-05-27T09:11:02.279Z,1.55
2023-05-27T09:12:04.781Z,1.30
2023-05-27T09:13:06.418Z,1.55
2023-05-27T09:14:07.942Z,1.17
2023-05-27T09:15:09.727Z,1.10
2023-05-27T09:16:11.386Z,1.50
2023-05-27T09:17:12.849Z,1.45
2023-05-27T09:18:16.456Z,1.10
2023-05-27T09:19:19.713Z,1.13
2023-05-27T09:20:26.926Z,1.40
2023-05-27T09:21:28.615Z,1.20
2023-05-27T09:22:32.104Z,1.50
2023-05-27T09:23:41.058Z,1.20
2023-05-27T09:24:42.564Z,1.30
2023-05-27T09:25:44.033Z,1.48
2023-05-27T09:26:45.642Z,1.00
2023-05-27T09:27:47.187Z,1.58
2023-05-27T09:28:48.659Z,1.15
2023-05-27T09:29:50.190Z,1.02
2023-05-27T09:31:03.264Z,1.50
2023-05-27T09:32:07.495Z,1.35
2023-05-27T09:33:09.573Z,1.70
2023-05-27T09:34:18.015Z,1.38
2023-05-27T09:35:19.571Z,2.00
2023-05-27T09:36:23.438Z,1.55
2023-05-27T09:37:36.037Z,1.40
2023-05-27T09:38:38.067Z,1.20
2023-05-27T09:39:40.199Z,1.80
2023-05-27T09:40:45.185Z,2.00
2023-05-27T09:41:57.088Z,1.95
2023-05-27T09:42:58.683Z,1.88
2023-05-27T09:44:01.454Z,1.75
2023-05-27T09:45:07.080Z,1.20
2023-05-27T09:46:13.373Z,1.88
2023-05-27T09:47:18.811Z,1.83
2023-05-27T09:48:21.565Z,1.60
2023-05-27T09:49:26.546Z,1.20
2023-05-27T09:50:29.313Z,1.42
2023-05-27T09:51:33.131Z,1.17
2023-05-27T09:52:43.978Z,1.60
2023-05-27T09:53:54.384Z,1.75
2023-05-27T09:54:58.306Z,1.40
2023-05-27T09:56:00.918Z,1.65
2023-05-27T09:57:04.432Z,3.22
2023-05-27T09:58:06.980Z,1.42
2023-05-27T09:59:09.265Z,1.50
2023-05-27T10:00:12.797Z,2.03
2023-05-27T10:01:14.571Z,2.13
2023-05-27T10:02:19.527Z,1.60
2023-05-27T10:03:22.593Z,2.03
2023-05-27T10:04:24.548Z,1.42
2023-05-27T10:05:28.498Z,1.92
2023-05-27T10:06:30.743Z,1.88
2023-05-27T10:08:54.413Z,2.10
2023-05-27T10:10:57.660Z,1.60
2023-05-27T10:11:59.883Z,1.77
2023-05-27T10:13:02.430Z,2.00
2023-05-27T10:14:04.628Z,1.70
2023-05-27T10:15:07.065Z,1.70
2023-05-27T10:16:20.579Z,2.20
2023-05-27T10:17:22.160Z,2.00
2023-05-27T10:18:26.779Z,1.75
2023-05-27T10:19:28.241Z,2.13
2023-05-27T10:20:32.747Z,2.40
2023-05-27T10:21:34.459Z,2.05
2023-05-27T10:22:43.858Z,1.65
2023-05-27T10:24:03.165Z,1.67
2023-05-27T10:25:14.536Z,1.90
2023-05-27T10:26:16.380Z,2.10
2023-05-27T10:28:29.654Z,2.20
2023-05-27T10:29:41.517Z,2.15
2023-05-27T10:30:47.165Z,2.20
2023-05-27T10:31:52.080Z,1.42
2023-05-27T10:32:55.066Z,1.55
2023-05-27T10:33:58.819Z,2.20
2023-05-27T10:35:00.272Z,1.50
2023-05-27T10:36:07.386Z,2.03
2023-05-27T10:37:09.106Z,1.58
2023-05-27T10:38:20.000Z,2.70
2023-05-27T10:39:21.558Z,2.13
2023-05-27T10:40:26.871Z,2.17
2023-05-27T10:41:28.508Z,2.10
2023-05-27T10:42:30.035Z,2.22
2023-05-27T10:43:32.313Z,2.17
2023-05-27T10:44:33.764Z,1.67
2023-05-27T10:45:35.463Z,1.95
2023-05-27T10:46:44.482Z,2.20
2023-05-27T10:47:47.742Z,2.08
2023-05-27T10:48:49.258Z,2.22
2023-05-27T10:49:51.294Z,2.15
2023-05-27T10:50:54.408Z,1.60
2023-05-27T10:51:58.698Z,2.00
2023-05-27T10:53:00.624Z,2.45
2023-05-27T10:54:28.097Z,1.90
2023-05-27T10:55:27.557Z,1.85
2023-05-27T10:56:29.174Z,2.20
2023-05-27T10:57:31.654Z,2.45
2023-05-27T10:58:39.318Z,2.45
2023-05-27T10:59:55.487Z,2.60
2023-05-27T11:01:02.152Z,2.20
2023-05-27T11:02:05.449Z,1.73
2023-05-27T11:03:17.530Z,1.88
2023-05-27T11:04:19.477Z,2.28
2023-05-27T11:06:25.371Z,1.80
2023-05-27T11:07:26.972Z,2.25
2023-05-27T11:08:28.849Z,2.75
2023-05-27T11:10:31.937Z,2.80
2023-05-27T11:11:33.440Z,2.80
2023-05-27T11:12:35.577Z,2.40
2023-05-27T11:13:45.569Z,2.72
2023-05-27T11:14:53.812Z,2.50
2023-05-27T11:15:55.604Z,2.20
2023-05-27T11:18:03.447Z,2.40
2023-05-27T11:19:04.905Z,2.40
2023-05-27T11:20:08.419Z,2.10
2023-05-27T11:21:11.821Z,2.10
2023-05-27T11:22:14.659Z,2.00
2023-05-27T11:23:16.565Z,2.30
2023-05-27T11:24:19.329Z,2.15
2023-05-27T11:25:24.437Z,2.42
2023-05-27T11:26:26.525Z,2.70
2023-05-27T11:27:38.684Z,2.30
2023-05-27T11:28:48.840Z,2.70
2023-05-27T11:29:52.386Z,2.17
2023-05-27T11:31:03.073Z,2.75
2023-05-27T11:32:06.497Z,1.98
2023-05-27T11:33:11.797Z,1.95
2023-05-27T11:35:23.369Z,2.67
2023-05-27T11:36:30.037Z,2.17
2023-05-27T11:37:36.123Z,2.45
2023-05-27T11:38:55.135Z,2.80
2023-05-27T11:39:56.677Z,3.60
2023-05-27T11:41:08.333Z,2.33
2023-05-27T11:42:09.823Z,3.20
2023-05-27T11:43:17.911Z,2.72
2023-05-27T11:44:26.217Z,2.40
2023-05-27T11:45:29.385Z,2.55
2023-05-27T11:46:35.113Z,2.50
2023-05-27T11:47:42.570Z,2.72
2023-05-27T11:48:44.807Z,2.15
2023-05-27T11:49:53.493Z,2.38
2023-05-27T11:50:55.701Z,2.53
2023-05-27T11:51:57.803Z,2.08
2023-05-27T11:53:03.919Z,2.47
2023-05-27T11:54:05.484Z,2.75
2023-05-27T11:55:15.503Z,2.80
2023-05-27T11:56:17.037Z,2.45
2023-05-27T11:57:18.548Z,2.30
2023-05-27T11:58:20.008Z,2.60
2023-05-27T11:59:22.887Z,2.58
2023-05-27T12:00:24.734Z,2.25
2023-05-27T12:01:29.640Z,2.10
2023-05-27T12:02:31.206Z,2.63
2023-05-27T12:03:35.489Z,2.35
2023-05-27T12:04:37.012Z,2.30
2023-05-27T12:05:38.508Z,2.85
2023-05-27T12:06:41.461Z,2.22
2023-05-27T12:07:44.631Z,2.15
2023-05-27T12:08:46.554Z,2.35
2023-05-27T12:09:50.254Z,2.58
2023-05-27T12:10:54.765Z,2.38
2023-05-27T12:11:56.314Z,1.95
2023-05-27T12:13:07.573Z,2.03
2023-05-27T12:14:09.692Z,2.03
2023-05-27T12:15:11.561Z,2.33
2023-05-27T12:16:13.080Z,2.10
2023-05-27T12:17:14.759Z,2.45
2023-05-27T12:18:16.266Z,2.00
2023-05-27T12:19:18.760Z,2.50
2023-05-27T12:20:21.315Z,2.20
2023-05-27T12:21:22.910Z,2.40
2023-05-27T12:22:24.658Z,1.88
2023-05-27T12:24:27.813Z,1.73
2023-05-27T12:25:29.313Z,2.15
2023-05-27T12:26:31.634Z,2.42
2023-05-27T12:27:33.116Z,2.30
2023-05-27T12:28:35.858Z,2.53
2023-05-27T12:29:37.986Z,2.88
2023-05-27T12:30:39.575Z,1.95
2023-05-27T12:31:41.440Z,1.95
2023-05-27T12:32:43.186Z,3.15
2023-05-27T12:34:46.817Z,2.50
2023-05-27T12:35:48.413Z,2.30
2023-05-27T12:37:51.646Z,2.08
2023-05-27T12:39:54.643Z,2.20
2023-05-27T12:40:59.232Z,2.45
2023-05-27T12:42:01.935Z,2.20
2023-05-27T12:43:07.198Z,1.90
2023-05-27T12:44:08.642Z,2.03
2023-05-27T12:45:10.996Z,2.42
2023-05-27T12:46:12.545Z,2.15
2023-05-27T12:47:14.147Z,1.73
2023-05-27T12:48:15.744Z,1.67
2023-05-27T12:49:17.212Z,2.15
2023-05-27T12:50:19.107Z,1.77
2023-05-27T12:51:20.593Z,2.28
2023-05-27T12:52:22.049Z,2.60
2023-05-27T12:53:24.040Z,1.73
2023-05-27T12:54:25.549Z,1.85
2023-05-27T12:55:27.193Z,2.10
2023-05-27T12:56:29.084Z,1.90
2023-05-27T12:57:30.683Z,2.05
2023-05-27T12:58:32.179Z,1.80
2023-05-27T12:59:34.522Z,2.03
2023-05-27T13:00:36.068Z,1.83
2023-05-27T13:01:37.675Z,1.77
2023-05-27T13:02:39.696Z,1.70
2023-05-27T13:03:42.226Z,1.75
2023-05-27T13:04:43.781Z,1.90
2023-05-27T13:05:45.731Z,2.25
2023-05-27T13:06:47.375Z,1.92
2023-05-27T13:07:57.258Z,1.98
2023-05-27T13:08:58.758Z,1.92
2023-05-27T13:10:06.082Z,1.63
2023-05-27T13:11:08.603Z,1.85
2023-05-27T13:12:10.179Z,1.95
2023-05-27T13:13:11.941Z,2.35
2023-05-27T13:15:15.116Z,2.15
2023-05-27T13:16:16.583Z,1.63
2023-05-27T13:17:18.153Z,2.53
2023-05-27T13:18:19.599Z,2.25
2023-05-27T13:19:21.505Z,2.50
2023-05-27T13:20:25.010Z,1.90
2023-05-27T13:21:26.688Z,2.00
2023-05-27T13:22:28.184Z,2.80
2023-05-27T13:23:30.203Z,2.30
2023-05-27T13:24:31.694Z,2.47
2023-05-27T13:25:33.323Z,2.25
2023-05-27T13:26:35.140Z,1.75
2023-05-27T13:27:36.638Z,2.30
2023-05-27T13:28:38.087Z,2.25
2023-05-27T13:29:41.945Z,2.15
2023-05-27T13:30:43.504Z,2.20
2023-05-27T13:31:46.976Z,1.70
2023-05-27T13:32:48.822Z,1.92
2023-05-27T13:33:50.313Z,2.22
2023-05-27T13:34:52.603Z,2.10
2023-05-27T13:35:54.142Z,2.10
2023-05-27T13:36:55.630Z,1.70
2023-05-27T13:37:57.160Z,2.13
2023-05-27T13:38:58.604Z,2.05
2023-05-27T13:40:00.085Z,2.80
2023-05-27T13:41:01.600Z,1.83
2023-05-27T13:42:03.298Z,1.95
2023-05-27T13:44:06.397Z,1.65
2023-05-27T13:46:09.893Z,2.10
2023-05-27T13:47:11.453Z,2.25
2023-05-27T13:48:13.426Z,1.80
2023-05-27T13:49:15.059Z,2.40
2023-05-27T13:50:16.551Z,1.73
2023-05-27T13:51:18.073Z,2.55
2023-05-27T13:52:19.529Z,2.60
2023-05-27T13:53:21.135Z,1.73
2023-05-27T13:54:22.650Z,2.10
2023-05-27T13:55:24.179Z,1.95
2023-05-27T13:56:25.979Z,2.60
2023-05-27T13:57:27.450Z,2.33
2023-05-27T13:58:29.748Z,2.38
2023-05-27T13:59:31.352Z,2.80
2023-05-27T14:00:32.903Z,2.40
2023-05-27T14:01:34.795Z,1.95
2023-05-27T14:02:36.403Z,2.03
2023-05-27T14:03:37.914Z,2.55
2023-05-27T14:04:39.456Z,2.33
2023-05-27T14:05:41.400Z,2.55
2023-05-27T14:06:42.958Z,1.73
2023-05-27T14:07:45.166Z,2.15
2023-05-27T14:08:46.741Z,1.77
2023-05-27T14:09:48.233Z,2.20
2023-05-27T14:10:50.325Z,2.40
2023-05-27T14:11:51.835Z,2.42
2023-05-27T14:12:53.308Z,2.58
2023-05-27T14:13:56.515Z,1.95
2023-05-27T14:14:58.012Z,1.63
2023-05-27T14:15:59.572Z,2.10
2023-05-27T14:17:01.376Z,1.85
2023-05-27T14:18:05.875Z,2.35
2023-05-27T14:19:07.376Z,2.28
2023-05-27T14:20:11.895Z,2.08
2023-05-27T14:21:13.857Z,2.53
2023-05-27T14:22:15.472Z,2.20
2023-05-27T14:23:17.443Z,2.13
2023-05-27T14:24:18.900Z,1.73
2023-05-27T14:25:21.459Z,2.55
2023-05-27T14:26:22.950Z,2.40
2023-05-27T14:27:24.402Z,1.70
2023-05-27T14:28:25.979Z,1.73
2023-05-27T14:29:27.466Z,2.17
2023-05-27T14:30:28.968Z,2.10